sensor_id;sensor_type;location;lat;lon;timestamp;pressure;altitude;pressure_sealevel;temperature;humidity
29907;BME280;16776;50.958;10.994;2023-04-06T00:00:16;98849.44;;;1.54;73.09
29907;BME280;16776;50.958;10.994;2023-04-06T00:02:44;98846.84;;;1.49;73.17
29907;BME280;16776;50.958;10.994;2023-04-06T00:05:11;98845.03;;;1.40;73.46
29907;BME280;16776;50.958;10.994;2023-04-06T00:07:37;98843.28;;;1.33;73.91
29907;BME280;16776;50.958;10.994;2023-04-06T00:10:08;98841.50;;;1.26;73.00
29907;BME280;16776;50.958;10.994;2023-04-06T00:12:35;98842.22;;;1.18;73.45
29907;BME280;16776;50.958;10.994;2023-04-06T00:15:02;98837.84;;;1.09;73.47
29907;BME280;16776;50.958;10.994;2023-04-06T00:17:30;98845.38;;;1.01;72.70
29907;BME280;16776;50.958;10.994;2023-04-06T00:19:58;98840.16;;;0.95;73.02
29907;BME280;16776;50.958;10.994;2023-04-06T00:22:25;98839.16;;;0.86;73.36
29907;BME280;16776;50.958;10.994;2023-04-06T00:24:52;98842.44;;;0.79;73.13
29907;BME280;16776;50.958;10.994;2023-04-06T00:27:19;98838.09;;;0.72;73.55
29907;BME280;16776;50.958;10.994;2023-04-06T00:29:45;98835.47;;;0.65;73.26
29907;BME280;16776;50.958;10.994;2023-04-06T00:32:12;98831.16;;;0.60;73.49
29907;BME280;16776;50.958;10.994;2023-04-06T00:34:39;98833.63;;;0.55;73.35
29907;BME280;16776;50.958;10.994;2023-04-06T00:37:07;98827.63;;;0.52;73.97
29907;BME280;16776;50.958;10.994;2023-04-06T00:39:33;98830.88;;;0.45;73.33
29907;BME280;16776;50.958;10.994;2023-04-06T00:42:00;98825.72;;;0.39;73.33
29907;BME280;16776;50.958;10.994;2023-04-06T00:44:36;98820.53;;;0.33;73.57
29907;BME280;16776;50.958;10.994;2023-04-06T00:47:03;98819.66;;;0.29;73.27
29907;BME280;16776;50.958;10.994;2023-04-06T00:49:30;98819.59;;;0.24;73.49
29907;BME280;16776;50.958;10.994;2023-04-06T00:51:58;98821.16;;;0.18;73.60
29907;BME280;16776;50.958;10.994;2023-04-06T00:54:26;98813.47;;;0.13;73.47
29907;BME280;16776;50.958;10.994;2023-04-06T00:56:53;98807.44;;;0.07;73.43
29907;BME280;16776;50.958;10.994;2023-04-06T00:59:22;98799.75;;;0.02;73.63
29907;BME280;16776;50.958;10.994;2023-04-06T01:01:49;98804.72;;;-0.04;73.36
29907;BME280;16776;50.958;10.994;2023-04-06T01:04:16;98804.63;;;-0.07;73.59
29907;BME280;16776;50.958;10.994;2023-04-06T01:06:43;98804.56;;;-0.11;73.59
29907;BME280;16776;50.958;10.994;2023-04-06T01:09:10;98800.25;;;-0.17;73.58
29907;BME280;16776;50.958;10.994;2023-04-06T01:11:41;98798.53;;;-0.18;73.78
29907;BME280;16776;50.958;10.994;2023-04-06T01:14:10;98802.59;;;-0.26;73.45
29907;BME280;16776;50.958;10.994;2023-04-06T01:16:37;98800.03;;;-0.29;73.79
29907;BME280;16776;50.958;10.994;2023-04-06T01:19:07;98794.97;;;-0.29;73.97
29907;BME280;16776;50.958;10.994;2023-04-06T01:21:34;98800.78;;;-0.33;73.70
29907;BME280;16776;50.958;10.994;2023-04-06T01:24:03;98799.09;;;-0.34;73.58
29907;BME280;16776;50.958;10.994;2023-04-06T01:26:30;98785.50;;;-0.39;73.68
29907;BME280;16776;50.958;10.994;2023-04-06T01:28:57;98786.31;;;-0.40;74.04
29907;BME280;16776;50.958;10.994;2023-04-06T01:31:24;98793.00;;;-0.42;74.03
29907;BME280;16776;50.958;10.994;2023-04-06T01:33:51;98794.59;;;-0.47;73.91
29907;BME280;16776;50.958;10.994;2023-04-06T01:36:18;98798.81;;;-0.48;74.20
29907;BME280;16776;50.958;10.994;2023-04-06T01:38:45;98790.31;;;-0.50;74.26
29907;BME280;16776;50.958;10.994;2023-04-06T01:41:13;98785.22;;;-0.51;74.28
29907;BME280;16776;50.958;10.994;2023-04-06T01:43:40;98787.72;;;-0.54;74.21
29907;BME280;16776;50.958;10.994;2023-04-06T01:46:07;98791.91;;;-0.55;74.66
29907;BME280;16776;50.958;10.994;2023-04-06T01:48:33;98783.47;;;-0.56;74.50
29907;BME280;16776;50.958;10.994;2023-04-06T01:51:00;98784.34;;;-0.55;74.70
29907;BME280;16776;50.958;10.994;2023-04-06T01:53:27;98778.41;;;-0.56;74.53
29907;BME280;16776;50.958;10.994;2023-04-06T01:55:55;98790.25;;;-0.54;74.44
29907;BME280;16776;50.958;10.994;2023-04-06T01:58:26;98787.72;;;-0.54;74.39
29907;BME280;16776;50.958;10.994;2023-04-06T02:00:53;98780.09;;;-0.56;74.25
29907;BME280;16776;50.958;10.994;2023-04-06T02:03:23;98775.03;;;-0.56;74.62
29907;BME280;16776;50.958;10.994;2023-04-06T02:05:49;98779.22;;;-0.57;74.74
29907;BME280;16776;50.958;10.994;2023-04-06T02:08:16;98785.19;;;-0.54;74.67
29907;BME280;16776;50.958;10.994;2023-04-06T02:10:43;98780.97;;;-0.54;75.00
29907;BME280;16776;50.958;10.994;2023-04-06T02:13:09;98780.16;;;-0.51;74.79
29907;BME280;16776;50.958;10.994;2023-04-06T02:15:37;98780.25;;;-0.48;74.96
29907;BME280;16776;50.958;10.994;2023-04-06T02:18:04;98772.66;;;-0.48;74.84
29907;BME280;16776;50.958;10.994;2023-04-06T02:20:31;98776.06;;;-0.46;75.20
29907;BME280;16776;50.958;10.994;2023-04-06T02:22:58;98776.94;;;-0.44;75.09
29907;BME280;16776;50.958;10.994;2023-04-06T02:25:25;98781.19;;;-0.43;74.79
29907;BME280;16776;50.958;10.994;2023-04-06T02:27:53;98779.53;;;-0.41;74.86
29907;BME280;16776;50.958;10.994;2023-04-06T02:30:20;98783.78;;;-0.40;74.63
29907;BME280;16776;50.958;10.994;2023-04-06T02:32:48;98778.72;;;-0.39;74.75
29907;BME280;16776;50.958;10.994;2023-04-06T02:35:14;98775.38;;;-0.39;75.01
29907;BME280;16776;50.958;10.994;2023-04-06T02:37:41;98779.59;;;-0.38;75.16
29907;BME280;16776;50.958;10.994;2023-04-06T02:40:09;98776.25;;;-0.37;75.17
29907;BME280;16776;50.958;10.994;2023-04-06T02:42:35;98776.28;;;-0.36;74.78
29907;BME280;16776;50.958;10.994;2023-04-06T02:45:02;98772.94;;;-0.35;75.04
29907;BME280;16776;50.958;10.994;2023-04-06T02:47:29;98770.44;;;-0.33;74.61
29907;BME280;16776;50.958;10.994;2023-04-06T02:49:57;98773.00;;;-0.30;74.99
29907;BME280;16776;50.958;10.994;2023-04-06T02:52:24;98766.22;;;-0.31;75.09
29907;BME280;16776;50.958;10.994;2023-04-06T02:54:51;98769.66;;;-0.29;74.74
29907;BME280;16776;50.958;10.994;2023-04-06T02:57:17;98771.38;;;-0.28;74.90
29907;BME280;16776;50.958;10.994;2023-04-06T02:59:44;98771.41;;;-0.27;75.15
29907;BME280;16776;50.958;10.994;2023-04-06T03:02:11;98772.22;;;-0.26;74.74
29907;BME280;16776;50.958;10.994;2023-04-06T03:04:37;98770.56;;;-0.26;74.67
29907;BME280;16776;50.958;10.994;2023-04-06T03:07:07;98767.25;;;-0.23;75.07
29907;BME280;16776;50.958;10.994;2023-04-06T03:09:33;98772.28;;;-0.23;74.65
29907;BME280;16776;50.958;10.994;2023-04-06T03:12:00;98773.16;;;-0.23;74.78
29907;BME280;16776;50.958;10.994;2023-04-06T03:14:28;98774.88;;;-0.22;75.29
29907;BME280;16776;50.958;10.994;2023-04-06T03:16:55;98768.13;;;-0.21;74.92
29907;BME280;16776;50.958;10.994;2023-04-06T03:19:21;98763.88;;;-0.22;74.84
29907;BME280;16776;50.958;10.994;2023-04-06T03:21:48;98767.25;;;-0.23;74.77
29907;BME280;16776;50.958;10.994;2023-04-06T03:24:16;98765.59;;;-0.21;74.97
29907;BME280;16776;50.958;10.994;2023-04-06T03:26:43;98769.75;;;-0.23;74.83
29907;BME280;16776;50.958;10.994;2023-04-06T03:29:09;98770.59;;;-0.24;74.82
29907;BME280;16776;50.958;10.994;2023-04-06T03:31:36;98765.53;;;-0.24;74.55
29907;BME280;16776;50.958;10.994;2023-04-06T03:34:02;98766.34;;;-0.25;74.74
29907;BME280;16776;50.958;10.994;2023-04-06T03:36:29;98776.47;;;-0.25;74.77
29907;BME280;16776;50.958;10.994;2023-04-06T03:38:56;98772.22;;;-0.26;74.60
29907;BME280;16776;50.958;10.994;2023-04-06T03:41:24;98769.69;;;-0.26;74.80
29907;BME280;16776;50.958;10.994;2023-04-06T03:43:52;98771.38;;;-0.28;74.88
29907;BME280;16776;50.958;10.994;2023-04-06T03:46:18;98774.72;;;-0.29;74.76
29907;BME280;16776;50.958;10.994;2023-04-06T03:48:45;98785.66;;;-0.30;74.80
29907;BME280;16776;50.958;10.994;2023-04-06T03:51:12;98783.09;;;-0.32;74.79
29907;BME280;16776;50.958;10.994;2023-04-06T03:53:38;98784.75;;;-0.32;74.62
29907;BME280;16776;50.958;10.994;2023-04-06T03:56:05;98776.31;;;-0.33;74.91
29907;BME280;16776;50.958;10.994;2023-04-06T03:58:33;98786.44;;;-0.33;74.80
29907;BME280;16776;50.958;10.994;2023-04-06T04:01:00;98785.53;;;-0.36;74.71
29907;BME280;16776;50.958;10.994;2023-04-06T04:03:27;98784.66;;;-0.38;74.71
29907;BME280;16776;50.958;10.994;2023-04-06T04:05:53;98777.91;;;-0.39;74.59
29907;BME280;16776;50.958;10.994;2023-04-06T04:08:20;98787.13;;;-0.41;74.94
29907;BME280;16776;50.958;10.994;2023-04-06T04:13:19;98789.63;;;-0.43;75.12
29907;BME280;16776;50.958;10.994;2023-04-06T04:15:48;98791.38;;;-0.40;75.14
29907;BME280;16776;50.958;10.994;2023-04-06T04:18:15;98794.72;;;-0.41;75.09
29907;BME280;16776;50.958;10.994;2023-04-06T04:20:43;98787.19;;;-0.38;74.97
29907;BME280;16776;50.958;10.994;2023-04-06T04:23:10;98793.91;;;-0.39;74.63
29907;BME280;16776;50.958;10.994;2023-04-06T04:25:37;98785.50;;;-0.39;75.10
29907;BME280;16776;50.958;10.994;2023-04-06T04:28:04;98790.56;;;-0.39;74.91
29907;BME280;16776;50.958;10.994;2023-04-06T04:30:30;98790.56;;;-0.39;74.95
29907;BME280;16776;50.958;10.994;2023-04-06T04:32:58;98791.41;;;-0.37;74.71
29907;BME280;16776;50.958;10.994;2023-04-06T04:35:26;98789.75;;;-0.37;75.05
29907;BME280;16776;50.958;10.994;2023-04-06T04:37:53;98788.84;;;-0.39;75.15
29907;BME280;16776;50.958;10.994;2023-04-06T04:40:19;98793.13;;;-0.36;74.97
29907;BME280;16776;50.958;10.994;2023-04-06T04:42:46;98798.19;;;-0.36;74.63
29907;BME280;16776;50.958;10.994;2023-04-06T04:45:13;98795.66;;;-0.36;74.71
29907;BME280;16776;50.958;10.994;2023-04-06T04:47:40;98802.44;;;-0.35;75.05
29907;BME280;16776;50.958;10.994;2023-04-06T04:50:09;98802.47;;;-0.32;75.05
29907;BME280;16776;50.958;10.994;2023-04-06T04:52:37;98802.47;;;-0.34;74.99
29907;BME280;16776;50.958;10.994;2023-04-06T04:55:04;98800.78;;;-0.33;74.99
29907;BME280;16776;50.958;10.994;2023-04-06T04:57:31;98809.22;;;-0.33;76.42
29907;BME280;16776;50.958;10.994;2023-04-06T04:59:58;98800.13;;;-0.23;79.31
29907;BME280;16776;50.958;10.994;2023-04-06T05:02:27;98801.41;;;0.00;80.00
29907;BME280;16776;50.958;10.994;2023-04-06T05:04:53;98801.97;;;0.31;79.35
29907;BME280;16776;50.958;10.994;2023-04-06T05:07:22;98798.22;;;0.60;78.60
29907;BME280;16776;50.958;10.994;2023-04-06T05:09:49;98802.66;;;0.76;78.16
29907;BME280;16776;50.958;10.994;2023-04-06T05:12:16;98802.09;;;0.91;77.73
29907;BME280;16776;50.958;10.994;2023-04-06T05:14:43;98802.25;;;1.01;77.54
29907;BME280;16776;50.958;10.994;2023-04-06T05:17:09;98797.25;;;1.09;76.78
29907;BME280;16776;50.958;10.994;2023-04-06T05:19:36;98800.75;;;1.14;76.81
29907;BME280;16776;50.958;10.994;2023-04-06T05:22:03;98804.19;;;1.19;76.64
29907;BME280;16776;50.958;10.994;2023-04-06T05:24:31;98794.13;;;1.25;76.55
29907;BME280;16776;50.958;10.994;2023-04-06T05:26:58;98801.75;;;1.27;76.38
29907;BME280;16776;50.958;10.994;2023-04-06T05:29:25;98797.56;;;1.30;76.87
29907;BME280;16776;50.958;10.994;2023-04-06T05:31:52;98793.38;;;1.34;76.87
29907;BME280;16776;50.958;10.994;2023-04-06T05:34:18;98801.09;;;1.40;75.97
29907;BME280;16776;50.958;10.994;2023-04-06T05:36:45;98798.63;;;1.48;76.93
29907;BME280;16776;50.958;10.994;2023-04-06T05:39:12;98785.06;;;1.44;76.43
29907;BME280;16776;50.958;10.994;2023-04-06T05:41:41;98800.50;;;1.62;76.40
29907;BME280;16776;50.958;10.994;2023-04-06T05:44:07;98808.16;;;1.67;76.16
29907;BME280;16776;50.958;10.994;2023-04-06T05:46:34;98804.84;;;1.74;76.97
29907;BME280;16776;50.958;10.994;2023-04-06T05:49:01;98810.00;;;1.80;76.70
29907;BME280;16776;50.958;10.994;2023-04-06T05:51:27;98807.56;;;1.88;77.03
29907;BME280;16776;50.958;10.994;2023-04-06T05:53:54;98808.44;;;1.93;76.87
29907;BME280;16776;50.958;10.994;2023-04-06T05:56:21;98808.50;;;1.99;77.15
29907;BME280;16776;50.958;10.994;2023-04-06T05:58:53;98816.25;;;2.08;77.29
29907;BME280;16776;50.958;10.994;2023-04-06T06:01:20;98819.66;;;2.13;76.65
29907;BME280;16776;50.958;10.994;2023-04-06T06:03:46;98821.44;;;2.20;76.83
29907;BME280;16776;50.958;10.994;2023-04-06T06:06:13;98822.31;;;2.25;77.01
29907;BME280;16776;50.958;10.994;2023-04-06T06:08:40;98822.41;;;2.33;76.98
29907;BME280;16776;50.958;10.994;2023-04-06T06:11:09;98822.47;;;2.40;76.97
29907;BME280;16776;50.958;10.994;2023-04-06T06:13:37;98821.72;;;2.50;76.96
29907;BME280;16776;50.958;10.994;2023-04-06T06:16:05;98826.91;;;2.62;76.68
29907;BME280;16776;50.958;10.994;2023-04-06T06:18:32;98815.94;;;2.70;77.62
29907;BME280;16776;50.958;10.994;2023-04-06T06:20:59;98827.06;;;2.84;77.59
29907;BME280;16776;50.958;10.994;2023-04-06T06:23:26;98825.47;;;2.98;77.32
29907;BME280;16776;50.958;10.994;2023-04-06T06:25:52;98817.94;;;3.12;77.19
29907;BME280;16776;50.958;10.994;2023-04-06T06:28:19;98814.63;;;3.25;77.48
29907;BME280;16776;50.958;10.994;2023-04-06T06:30:46;98813.00;;;3.39;77.67
29907;BME280;16776;50.958;10.994;2023-04-06T06:33:14;98813.13;;;3.57;78.22
29907;BME280;16776;50.958;10.994;2023-04-06T06:35:40;98814.03;;;3.70;77.39
29907;BME280;16776;50.958;10.994;2023-04-06T06:38:07;98816.59;;;3.85;77.45
29907;BME280;16776;50.958;10.994;2023-04-06T06:40:34;98816.63;;;3.97;78.01
29907;BME280;16776;50.958;10.994;2023-04-06T06:43:00;98813.28;;;4.12;77.66
29907;BME280;16776;50.958;10.994;2023-04-06T06:45:27;98808.22;;;4.27;78.13
29907;BME280;16776;50.958;10.994;2023-04-06T06:47:54;98812.47;;;4.45;77.84
29907;BME280;16776;50.958;10.994;2023-04-06T06:50:23;98811.63;;;4.62;78.05
29907;BME280;16776;50.958;10.994;2023-04-06T06:52:50;98812.50;;;4.77;78.18
29907;BME280;16776;50.958;10.994;2023-04-06T06:55:16;98813.31;;;4.94;78.01
29907;BME280;16776;50.958;10.994;2023-04-06T06:57:44;98815.00;;;5.10;78.13
29907;BME280;16776;50.958;10.994;2023-04-06T07:00:13;98812.44;;;5.27;77.87
29907;BME280;16776;50.958;10.994;2023-04-06T07:02:40;98809.00;;;5.40;78.22
29907;BME280;16776;50.958;10.994;2023-04-06T07:05:07;98808.97;;;5.55;77.38
29907;BME280;16776;50.958;10.994;2023-04-06T07:07:36;98812.28;;;5.69;77.46
29907;BME280;16776;50.958;10.994;2023-04-06T07:10:03;98812.25;;;5.81;77.82
29907;BME280;16776;50.958;10.994;2023-04-06T07:12:29;98807.06;;;5.97;77.32
29907;BME280;16776;50.958;10.994;2023-04-06T07:14:56;98809.53;;;6.10;77.67
29907;BME280;16776;50.958;10.994;2023-04-06T07:17:23;98815.41;;;6.23;77.68
29907;BME280;16776;50.958;10.994;2023-04-06T07:19:49;98818.75;;;6.37;77.08
29907;BME280;16776;50.958;10.994;2023-04-06T07:22:16;98812.69;;;6.47;77.44
29907;BME280;16776;50.958;10.994;2023-04-06T07:24:44;98816.03;;;6.58;77.24
29907;BME280;16776;50.958;10.994;2023-04-06T07:27:11;98819.38;;;6.68;77.14
29907;BME280;16776;50.958;10.994;2023-04-06T07:29:37;98810.75;;;6.78;77.41
29907;BME280;16776;50.958;10.994;2023-04-06T07:32:04;98814.97;;;6.87;77.47
29907;BME280;16776;50.958;10.994;2023-04-06T07:34:36;98814.91;;;6.96;76.92
29907;BME280;16776;50.958;10.994;2023-04-06T07:37:03;98803.75;;;7.00;76.67
29907;BME280;16776;50.958;10.994;2023-04-06T07:39:29;98803.56;;;7.17;76.90
29907;BME280;16776;50.958;10.994;2023-04-06T07:41:57;98800.03;;;7.30;76.97
29907;BME280;16776;50.958;10.994;2023-04-06T07:44:24;98796.50;;;7.40;76.24
29907;BME280;16776;50.958;10.994;2023-04-06T07:46:51;98800.59;;;7.55;76.09
29907;BME280;16776;50.958;10.994;2023-04-06T07:49:18;98796.22;;;7.66;76.51
29907;BME280;16776;50.958;10.994;2023-04-06T07:51:46;98793.56;;;7.73;75.44
29907;BME280;16776;50.958;10.994;2023-04-06T07:54:12;98798.56;;;7.81;75.86
29907;BME280;16776;50.958;10.994;2023-04-06T07:56:39;98791.63;;;7.89;76.01
29907;BME280;16776;50.958;10.994;2023-04-06T07:59:07;98798.28;;;8.01;76.29
29907;BME280;16776;50.958;10.994;2023-04-06T08:01:34;98784.53;;;8.06;75.94
29907;BME280;16776;50.958;10.994;2023-04-06T08:04:01;98798.97;;;8.16;77.08
29907;BME280;16776;50.958;10.994;2023-04-06T08:06:27;98794.50;;;8.29;76.24
29907;BME280;16776;50.958;10.994;2023-04-06T08:08:54;98796.03;;;8.41;75.58
29907;BME280;16776;50.958;10.994;2023-04-06T08:11:21;98794.25;;;8.46;75.11
29907;BME280;16776;50.958;10.994;2023-04-06T08:13:47;98788.16;;;8.53;75.91
29907;BME280;16776;50.958;10.994;2023-04-06T08:16:16;98789.66;;;8.66;75.79
29907;BME280;16776;50.958;10.994;2023-04-06T08:18:42;98794.66;;;8.74;75.34
29907;BME280;16776;50.958;10.994;2023-04-06T08:21:09;98790.16;;;8.86;75.29
29907;BME280;16776;50.958;10.994;2023-04-06T08:23:36;98796.75;;;9.01;74.67
29907;BME280;16776;50.958;10.994;2023-04-06T08:26:02;98792.38;;;9.08;74.84
29907;BME280;16776;50.958;10.994;2023-04-06T08:28:29;98794.81;;;9.14;74.63
29907;BME280;16776;50.958;10.994;2023-04-06T08:30:56;98797.19;;;9.23;74.18
29907;BME280;16776;50.958;10.994;2023-04-06T08:33:24;98793.56;;;9.34;74.26
29907;BME280;16776;50.958;10.994;2023-04-06T08:35:50;98800.38;;;9.37;73.67
29907;BME280;16776;50.958;10.994;2023-04-06T08:38:17;98793.47;;;9.40;73.48
29907;BME280;16776;50.958;10.994;2023-04-06T08:40:44;98792.53;;;9.46;73.87
29907;BME280;16776;50.958;10.994;2023-04-06T08:43:14;98788.88;;;9.56;74.44
29907;BME280;16776;50.958;10.994;2023-04-06T08:45:41;98786.03;;;9.70;73.92
29907;BME280;16776;50.958;10.994;2023-04-06T08:48:09;98789.16;;;9.84;74.14
29907;BME280;16776;50.958;10.994;2023-04-06T08:50:38;98799.13;;;9.99;72.04
29907;BME280;16776;50.958;10.994;2023-04-06T08:53:06;98789.53;;;10.06;73.03
29907;BME280;16776;50.958;10.994;2023-04-06T08:55:33;98789.34;;;10.15;73.34
29907;BME280;16776;50.958;10.994;2023-04-06T08:58:00;98794.19;;;10.29;73.14
29907;BME280;16776;50.958;10.994;2023-04-06T09:00:28;98788.63;;;10.45;72.81
29907;BME280;16776;50.958;10.994;2023-04-06T09:02:58;98783.31;;;10.54;72.94
29907;BME280;16776;50.958;10.994;2023-04-06T09:05:25;98783.03;;;10.65;72.83
29907;BME280;16776;50.958;10.994;2023-04-06T09:07:58;98793.84;;;10.79;72.01
29907;BME280;16776;50.958;10.994;2023-04-06T09:10:24;98791.13;;;10.85;72.29
29907;BME280;16776;50.958;10.994;2023-04-06T09:13:02;98786.38;;;11.02;73.13
29907;BME280;16776;50.958;10.994;2023-04-06T09:15:29;98780.19;;;11.10;72.28
29907;BME280;16776;50.958;10.994;2023-04-06T09:17:56;98777.28;;;11.22;72.17
29907;BME280;16776;50.958;10.994;2023-04-06T09:20:23;98765.91;;;11.29;71.62
29907;BME280;16776;50.958;10.994;2023-04-06T09:22:53;98778.56;;;11.38;70.36
29907;BME280;16776;50.958;10.994;2023-04-06T09:25:23;98777.59;;;11.40;71.48
29907;BME280;16776;50.958;10.994;2023-04-06T09:27:58;98778.44;;;11.42;70.92
29907;BME280;16776;50.958;10.994;2023-04-06T09:30:25;98775.13;;;11.37;70.19
29907;BME280;16776;50.958;10.994;2023-04-06T09:32:53;98770.19;;;11.30;70.59
29907;BME280;16776;50.958;10.994;2023-04-06T09:35:21;98775.06;;;11.39;70.72
29907;BME280;16776;50.958;10.994;2023-04-06T09:37:49;98769.00;;;11.41;69.50
29907;BME280;16776;50.958;10.994;2023-04-06T09:40:18;98770.72;;;11.41;69.96
29907;BME280;16776;50.958;10.994;2023-04-06T09:42:48;98773.16;;;11.45;70.06
29907;BME280;16776;50.958;10.994;2023-04-06T09:45:17;98768.81;;;11.48;70.11
29907;BME280;16776;50.958;10.994;2023-04-06T09:47:45;98755.00;;;11.50;70.98
29907;BME280;16776;50.958;10.994;2023-04-06T09:50:13;98763.09;;;11.69;71.47
29907;BME280;16776;50.958;10.994;2023-04-06T09:52:43;98770.28;;;11.87;70.61
29907;BME280;16776;50.958;10.994;2023-04-06T09:55:23;98763.09;;;11.97;70.74
29907;BME280;16776;50.958;10.994;2023-04-06T09:58:04;98749.97;;;12.04;70.76
29907;BME280;16776;50.958;10.994;2023-04-06T10:00:32;98750.63;;;12.11;71.38
29907;BME280;16776;50.958;10.994;2023-04-06T10:03:04;98748.31;;;12.30;71.37
29907;BME280;16776;50.958;10.994;2023-04-06T10:05:37;98747.03;;;12.43;71.10
29907;BME280;16776;50.958;10.994;2023-04-06T10:08:10;98750.22;;;12.51;70.96
29907;BME280;16776;50.958;10.994;2023-04-06T10:10:37;98746.69;;;12.53;69.73
29907;BME280;16776;50.958;10.994;2023-04-06T10:13:05;98747.59;;;12.52;69.41
29907;BME280;16776;50.958;10.994;2023-04-06T10:15:33;98739.28;;;12.43;69.13
29907;BME280;16776;50.958;10.994;2023-04-06T10:18:00;98748.00;;;12.40;69.28
29907;BME280;16776;50.958;10.994;2023-04-06T10:20:31;98749.66;;;12.41;68.61
29907;BME280;16776;50.958;10.994;2023-04-06T10:23:05;98742.81;;;12.40;68.72
29907;BME280;16776;50.958;10.994;2023-04-06T10:25:33;98736.28;;;12.29;68.25
29907;BME280;16776;50.958;10.994;2023-04-06T10:28:06;98739.44;;;12.38;69.62
29907;BME280;16776;50.958;10.994;2023-04-06T10:30:33;98745.44;;;12.39;69.65
29907;BME280;16776;50.958;10.994;2023-04-06T10:33:01;98736.56;;;12.47;69.56
29907;BME280;16776;50.958;10.994;2023-04-06T10:35:36;98738.38;;;12.72;69.39
29907;BME280;16776;50.958;10.994;2023-04-06T10:38:04;98736.47;;;12.77;69.57
29907;BME280;16776;50.958;10.994;2023-04-06T10:40:35;98743.63;;;12.93;69.87
29907;BME280;16776;50.958;10.994;2023-04-06T10:43:18;98736.06;;;13.12;70.22
29907;BME280;16776;50.958;10.994;2023-04-06T10:45:54;98734.97;;;13.19;70.03
29907;BME280;16776;50.958;10.994;2023-04-06T10:48:22;98734.81;;;13.24;69.81
29907;BME280;16776;50.958;10.994;2023-04-06T10:50:50;98718.16;;;13.31;68.70
29907;BME280;16776;50.958;10.994;2023-04-06T10:53:21;98719.63;;;13.38;68.58
29907;BME280;16776;50.958;10.994;2023-04-06T10:55:49;98715.28;;;13.38;69.46
29907;BME280;16776;50.958;10.994;2023-04-06T10:58:17;98713.38;;;13.43;68.56
29907;BME280;16776;50.958;10.994;2023-04-06T11:00:45;98714.34;;;13.41;68.88
29907;BME280;16776;50.958;10.994;2023-04-06T11:03:12;98718.41;;;13.48;68.59
29907;BME280;16776;50.958;10.994;2023-04-06T11:05:43;98717.19;;;13.58;69.42
29907;BME280;16776;50.958;10.994;2023-04-06T11:08:10;98720.66;;;13.57;68.31
29907;BME280;16776;50.958;10.994;2023-04-06T11:10:36;98714.53;;;13.60;68.40
29907;BME280;16776;50.958;10.994;2023-04-06T11:13:03;98716.34;;;13.58;68.08
29907;BME280;16776;50.958;10.994;2023-04-06T11:15:35;98703.25;;;13.62;68.26
29907;BME280;16776;50.958;10.994;2023-04-06T11:18:03;98705.69;;;13.65;68.83
29907;BME280;16776;50.958;10.994;2023-04-06T11:20:30;98703.78;;;13.70;68.36
29907;BME280;16776;50.958;10.994;2023-04-06T11:23:00;98698.19;;;13.81;68.91
29907;BME280;16776;50.958;10.994;2023-04-06T11:25:29;98699.94;;;13.80;68.04
29907;BME280;16776;50.958;10.994;2023-04-06T11:27:57;98706.72;;;13.83;67.48
29907;BME280;16776;50.958;10.994;2023-04-06T11:30:24;98702.53;;;13.80;66.83
29907;BME280;16776;50.958;10.994;2023-04-06T11:33:00;98697.41;;;13.79;67.11
29907;BME280;16776;50.958;10.994;2023-04-06T11:35:26;98682.97;;;13.73;67.27
29907;BME280;16776;50.958;10.994;2023-04-06T11:37:53;98682.97;;;13.73;67.30
29907;BME280;16776;50.958;10.994;2023-04-06T11:40:21;98682.91;;;13.75;67.22
29907;BME280;16776;50.958;10.994;2023-04-06T11:42:52;98697.34;;;13.80;67.85
29907;BME280;16776;50.958;10.994;2023-04-06T11:45:19;98683.19;;;13.67;66.16
29907;BME280;16776;50.958;10.994;2023-04-06T11:47:56;98683.00;;;13.72;67.73
29907;BME280;16776;50.958;10.994;2023-04-06T11:50:24;98665.75;;;13.49;65.47
29907;BME280;16776;50.958;10.994;2023-04-06T11:52:58;98675.91;;;13.55;66.21
29907;BME280;16776;50.958;10.994;2023-04-06T11:55:26;98674.69;;;13.40;66.26
29907;BME280;16776;50.958;10.994;2023-04-06T11:57:53;98676.34;;;13.43;66.45
29907;BME280;16776;50.958;10.994;2023-04-06T12:00:20;98667.00;;;13.39;67.10
29907;BME280;16776;50.958;10.994;2023-04-06T12:02:48;98674.41;;;13.48;67.39
29907;BME280;16776;50.958;10.994;2023-04-06T12:05:16;98677.47;;;13.59;67.72
29907;BME280;16776;50.958;10.994;2023-04-06T12:07:43;98671.09;;;13.68;67.92
29907;BME280;16776;50.958;10.994;2023-04-06T12:10:10;98651.84;;;13.75;67.73
29907;BME280;16776;50.958;10.994;2023-04-06T12:12:36;98674.22;;;13.98;67.63
29907;BME280;16776;50.958;10.994;2023-04-06T12:15:04;98652.41;;;14.03;67.64
29907;BME280;16776;50.958;10.994;2023-04-06T12:17:31;98654.25;;;14.21;68.18
29907;BME280;16776;50.958;10.994;2023-04-06T12:19:58;98658.03;;;14.35;67.66
29907;BME280;16776;50.958;10.994;2023-04-06T12:22:26;98655.13;;;14.42;66.76
29907;BME280;16776;50.958;10.994;2023-04-06T12:24:52;98655.28;;;14.39;66.51
29907;BME280;16776;50.958;10.994;2023-04-06T12:27:19;98651.94;;;14.36;66.64
29907;BME280;16776;50.958;10.994;2023-04-06T12:29:47;98648.66;;;14.32;67.18
29907;BME280;16776;50.958;10.994;2023-04-06T12:32:17;98647.06;;;14.28;66.18
29907;BME280;16776;50.958;10.994;2023-04-06T12:34:44;98646.50;;;14.21;65.89
29907;BME280;16776;50.958;10.994;2023-04-06T12:37:11;98641.56;;;14.15;66.01
29907;BME280;16776;50.958;10.994;2023-04-06T12:39:39;98644.41;;;14.09;66.49
29907;BME280;16776;50.958;10.994;2023-04-06T12:42:05;98651.56;;;14.03;66.81
29907;BME280;16776;50.958;10.994;2023-04-06T12:44:32;98652.47;;;14.02;67.05
29907;BME280;16776;50.958;10.994;2023-04-06T12:46:59;98647.25;;;14.03;67.08
29907;BME280;16776;50.958;10.994;2023-04-06T12:49:26;98641.06;;;14.07;67.35
29907;BME280;16776;50.958;10.994;2023-04-06T12:51:53;98637.38;;;14.13;67.51
29907;BME280;16776;50.958;10.994;2023-04-06T12:54:20;98635.44;;;14.18;67.53
29907;BME280;16776;50.958;10.994;2023-04-06T12:56:48;98641.13;;;14.26;67.55